createdAt,value
2019-01-26T00:00:43.681Z,100698.79
2019-01-26T00:03:14.355Z,100689.70
2019-01-26T00:05:45.009Z,100694.08
2019-01-26T00:08:16.731Z,100684.13
2019-01-26T00:10:47.415Z,100684.56
2019-01-26T00:13:18.047Z,100674.19
2019-01-26T00:15:48.610Z,100674.19
2019-01-26T00:18:21.214Z,100669.86
2019-01-26T00:20:51.777Z,100672.06
2019-01-26T00:23:22.206Z,100673.75
2019-01-26T00:25:52.770Z,100665.59
2019-01-26T00:28:23.578Z,100671.70
2019-01-26T00:30:54.127Z,100685.16
2019-01-26T00:33:24.680Z,100685.25
2019-01-26T00:35:55.183Z,100680.94
2019-01-26T00:38:25.762Z,100682.76
2019-01-26T00:40:56.363Z,100676.33
2019-01-26T00:43:26.961Z,100665.56
2019-01-26T00:45:57.566Z,100668.59
2019-01-26T00:48:28.246Z,100661.30
2019-01-26T00:50:59.020Z,100654.02
2019-01-26T00:53:30.759Z,100638.05
2019-01-26T00:56:02.777Z,100627.67
2019-01-26T00:58:33.410Z,100630.70
2019-01-26T01:01:04.243Z,100633.74
2019-01-26T01:03:34.799Z,100628.16
2019-01-26T01:06:05.340Z,100627.34
2019-01-26T01:08:37.872Z,100632.53
2019-01-26T01:11:08.412Z,100626.52
2019-01-26T01:13:38.927Z,100623.97
2019-01-26T01:16:09.360Z,100621.38
2019-01-26T01:18:39.971Z,100627.48
2019-01-26T01:21:10.541Z,100625.32
2019-01-26T01:23:42.902Z,100624.94
2019-01-26T01:26:13.447Z,100628.88
2019-01-26T01:28:43.873Z,100636.28
2019-01-26T01:31:14.349Z,100634.59
2019-01-26T01:33:44.758Z,100628.16
2019-01-26T01:36:15.486Z,100638.55
2019-01-26T01:38:45.990Z,100647.25
2019-01-26T01:41:16.343Z,100642.53
2019-01-26T01:43:46.818Z,100625.17
2019-01-26T01:46:17.394Z,100629.98
2019-01-26T01:48:47.906Z,100621.36
2019-01-26T01:51:18.695Z,100611.41
2019-01-26T01:53:49.333Z,100620.06
2019-01-26T01:56:19.826Z,100612.27
2019-01-26T01:58:50.179Z,100609.67
2019-01-26T02:01:20.514Z,100620.11
2019-01-26T02:03:51.043Z,100612.36
2019-01-26T02:06:21.601Z,100615.43
2019-01-26T02:08:52.091Z,100611.97
2019-01-26T02:11:22.932Z,100620.67
2019-01-26T02:13:53.521Z,100606.86
2019-01-26T02:16:24.138Z,100606.03
2019-01-26T02:18:55.345Z,100599.11
2019-01-26T02:21:25.944Z,100601.31
2019-01-26T02:23:56.378Z,100598.29
2019-01-26T02:26:26.897Z,100587.89
2019-01-26T02:28:57.457Z,100591.83
2019-01-26T02:31:28.133Z,100591.83
2019-01-26T02:33:58.669Z,100578.45
2019-01-26T02:36:29.116Z,100553.77
2019-01-26T02:38:59.736Z,100568.53
2019-01-26T02:41:33.969Z,100563.77
2019-01-26T02:44:04.737Z,100555.11
2019-01-26T02:46:35.326Z,100559.47
2019-01-26T02:49:11.040Z,100557.70
2019-01-26T02:51:44.394Z,100559.88
2019-01-26T02:54:14.991Z,100556.01
2019-01-26T02:56:45.785Z,100552.16
2019-01-26T02:59:22.396Z,100549.13
2019-01-26T03:01:52.931Z,100547.39
2019-01-26T03:04:23.665Z,100552.63
2019-01-26T03:06:55.282Z,100543.14
2019-01-26T03:09:25.891Z,100538.84
2019-01-26T03:11:56.475Z,100534.98
2019-01-26T03:14:27.055Z,100531.56
2019-01-26T03:16:57.633Z,100530.77
2019-01-26T03:19:28.142Z,100531.20
2019-01-26T03:21:58.828Z,100524.34
2019-01-26T03:24:29.660Z,100525.75
2019-01-26T03:27:03.056Z,100515.39
2019-01-26T03:29:33.661Z,100518.46
2019-01-26T03:32:04.449Z,100508.96
2019-01-26T03:34:35.084Z,100514.67
2019-01-26T03:37:07.178Z,100510.37
2019-01-26T03:39:37.721Z,100506.07
2019-01-26T03:42:08.351Z,100502.67
2019-01-26T03:44:38.945Z,100503.17
2019-01-26T03:47:13.845Z,100496.27
2019-01-26T03:49:41.783Z,100490.23
2019-01-26T03:52:15.408Z,100484.70
2019-01-26T03:54:46.078Z,100477.80
2019-01-26T03:57:16.578Z,100473.05
2019-01-26T03:59:47.103Z,100469.15
2019-01-26T04:02:17.505Z,100469.22
2019-01-26T04:04:48.158Z,100460.14
2019-01-26T04:07:21.724Z,100459.77
2019-01-26T04:09:52.257Z,100455.02
2019-01-26T04:12:24.811Z,100453.32
2019-01-26T04:14:55.348Z,100450.77
2019-01-26T04:17:25.937Z,100449.50
2019-01-26T04:19:56.433Z,100444.76
2019-01-26T04:22:27.058Z,100444.81
2019-01-26T04:24:57.645Z,100443.13
2019-01-26T04:27:29.166Z,100439.66
2019-01-26T04:29:59.822Z,100435.35
2019-01-26T04:32:30.365Z,100432.38
2019-01-26T04:35:00.887Z,100433.27
2019-01-26T04:37:31.476Z,100426.78
2019-01-26T04:40:01.919Z,100422.06
2019-01-26T04:42:32.311Z,100418.61
2019-01-26T04:45:02.640Z,100415.19
2019-01-26T04:47:33.344Z,100410.00
2019-01-26T04:50:04.387Z,100410.05
2019-01-26T04:52:34.991Z,100408.31
2019-01-26T04:55:06.305Z,100404.89
2019-01-26T04:57:36.813Z,100400.55
2019-01-26T05:00:13.340Z,100400.13
2019-01-26T05:02:43.741Z,100390.63
2019-01-26T05:05:14.235Z,100393.66
2019-01-26T05:07:44.593Z,100406.73
2019-01-26T05:10:16.521Z,100393.73
2019-01-26T05:12:47.130Z,100387.27
2019-01-26T05:15:17.940Z,100377.70
2019-01-26T05:17:48.328Z,100386.01
2019-01-26T05:20:22.130Z,100386.01
2019-01-26T05:22:52.544Z,100382.55
2019-01-26T05:25:22.937Z,100383.87
2019-01-26T05:27:53.331Z,100375.18
2019-01-26T05:30:27.021Z,100382.16
2019-01-26T05:33:04.716Z,100382.16
2019-01-26T05:35:38.109Z,100371.34
2019-01-26T05:38:08.527Z,100373.07
2019-01-26T05:40:38.894Z,100371.79
2019-01-26T05:43:09.293Z,100372.23
2019-01-26T05:45:42.046Z,100381.35
2019-01-26T05:48:12.498Z,100387.45
2019-01-26T05:50:42.995Z,100385.30
2019-01-26T05:53:13.463Z,100387.03
2019-01-26T05:55:43.898Z,100386.63
2019-01-26T05:58:14.472Z,100382.72
2019-01-26T06:00:44.752Z,100390.58
2019-01-26T06:03:15.030Z,100385.36
2019-01-26T06:05:45.391Z,100387.09
2019-01-26T06:08:15.694Z,100390.13
2019-01-26T06:10:46.156Z,100384.50
2019-01-26T06:13:16.445Z,100388.88
2019-01-26T06:15:49.529Z,100387.55
2019-01-26T06:18:19.873Z,100386.27
2019-01-26T06:20:50.275Z,100386.27
2019-01-26T06:23:23.674Z,100383.67
2019-01-26T06:25:54.050Z,100382.81
2019-01-26T06:28:24.423Z,100386.30
2019-01-26T06:30:54.811Z,100394.16
2019-01-26T06:33:25.254Z,100389.80
2019-01-26T06:35:55.637Z,100389.78
2019-01-26T06:38:28.183Z,100393.71
2019-01-26T06:40:58.305Z,100391.97
2019-01-26T06:43:28.719Z,100393.73
2019-01-26T06:45:59.019Z,100386.35
2019-01-26T06:48:29.436Z,100391.12
2019-01-26T06:50:59.759Z,100392.02
2019-01-26T06:53:30.046Z,100391.14
2019-01-26T06:56:03.187Z,100392.02
2019-01-26T06:58:33.661Z,100394.20
2019-01-26T07:01:07.018Z,100397.66
2019-01-26T07:03:37.403Z,100397.22
2019-01-26T07:06:32.638Z,100395.07
2019-01-26T07:09:05.379Z,100392.46
2019-01-26T07:11:35.616Z,100401.56
2019-01-26T07:14:07.171Z,100387.23
2019-01-26T07:16:37.558Z,100390.30
2019-01-26T07:19:07.954Z,100393.33
2019-01-26T07:21:38.337Z,100399.84
2019-01-26T07:24:08.789Z,100402.02
2019-01-26T07:26:39.081Z,100398.55
2019-01-26T07:29:09.365Z,100412.05
2019-01-26T07:31:39.773Z,100408.98
2019-01-26T07:34:10.119Z,100412.05
2019-01-26T07:36:40.574Z,100412.48
2019-01-26T07:39:13.723Z,100412.94
2019-01-26T07:41:44.028Z,100417.69
2019-01-26T07:44:14.406Z,100413.36
2019-01-26T07:46:44.850Z,100409.02
2019-01-26T07:49:15.190Z,100414.67
2019-01-26T07:51:45.557Z,100417.30
2019-01-26T07:54:19.783Z,100411.20
2019-01-26T07:56:52.383Z,100416.87
2019-01-26T07:59:22.842Z,100414.70
2019-01-26T08:01:53.137Z,100414.30
2019-01-26T08:04:23.661Z,100410.83
2019-01-26T08:06:54.004Z,100406.48
2019-01-26T08:09:24.575Z,100414.30
2019-01-26T08:11:55.033Z,100419.52
2019-01-26T08:14:25.201Z,100418.64
2019-01-26T08:16:55.709Z,100415.61
2019-01-26T08:19:26.236Z,100422.13
2019-01-26T08:21:56.680Z,100417.80
2019-01-26T08:24:26.955Z,100416.95
2019-01-26T08:27:00.273Z,100423.05
2019-01-26T08:29:32.080Z,100417.39
2019-01-26T08:32:02.400Z,100420.02
2019-01-26T08:34:32.981Z,100419.14
2019-01-26T08:37:03.299Z,100415.25
2019-01-26T08:39:34.845Z,100420.05
2019-01-26T08:42:05.588Z,100423.08
2019-01-26T08:44:35.896Z,100417.44
2019-01-26T08:47:07.492Z,100419.63
2019-01-26T08:49:37.781Z,100417.02
2019-01-26T08:52:08.259Z,100420.47
2019-01-26T08:54:38.664Z,100420.48
2019-01-26T08:57:09.101Z,100419.58
2019-01-26T08:59:41.041Z,100417.41
2019-01-26T09:02:25.670Z,100418.28
2019-01-26T09:04:57.285Z,100426.56
2019-01-26T09:07:29.291Z,100426.11
2019-01-26T09:10:02.533Z,100427.87
2019-01-26T09:12:33.416Z,100420.89
2019-01-26T09:15:03.856Z,100432.63
2019-01-26T09:17:34.266Z,100423.08
2019-01-26T09:20:05.307Z,100425.69
2019-01-26T09:22:35.976Z,100417.88
2019-01-26T09:25:09.245Z,100413.98
2019-01-26T09:27:41.585Z,100419.61
2019-01-26T09:30:12.062Z,100428.74
2019-01-26T09:32:42.655Z,100418.32
2019-01-26T09:35:13.069Z,100422.23
2019-01-26T09:37:43.448Z,100423.08
2019-01-26T09:40:14.177Z,100425.69
2019-01-26T09:42:44.586Z,100423.54
2019-01-26T09:45:16.195Z,100426.58
2019-01-26T09:47:47.064Z,100422.64
2019-01-26T09:50:19.303Z,100424.84
2019-01-26T09:52:49.809Z,100429.63
2019-01-26T09:55:20.336Z,100423.97
2019-01-26T09:57:50.702Z,100423.94
2019-01-26T10:00:21.254Z,100425.70
2019-01-26T10:02:52.960Z,100425.25
2019-01-26T10:05:23.457Z,100427.44
2019-01-26T10:07:53.812Z,100415.71
2019-01-26T10:10:24.929Z,100422.23
2019-01-26T10:12:55.791Z,100417.88
2019-01-26T10:15:27.323Z,100424.83
2019-01-26T10:17:58.041Z,100431.77
2019-01-26T10:20:31.217Z,100417.02
2019-01-26T10:23:01.667Z,100420.91
2019-01-26T10:25:34.561Z,100422.64
2019-01-26T10:28:05.640Z,100409.61
2019-01-26T10:30:41.847Z,100414.41
2019-01-26T10:33:12.352Z,100405.28
2019-01-26T10:36:18.438Z,100403.96
2019-01-26T10:38:55.904Z,100405.71
2019-01-26T10:41:39.194Z,100404.88
2019-01-26T10:44:12.168Z,100405.75
2019-01-26T10:46:42.686Z,100402.72
2019-01-26T10:49:13.083Z,100395.78
2019-01-26T10:51:43.466Z,100387.95
2019-01-26T10:54:13.763Z,100399.70
2019-01-26T10:56:44.143Z,100389.70
2019-01-26T10:59:14.580Z,100387.55
2019-01-26T11:01:45.032Z,100387.07
2019-01-26T11:04:15.274Z,100384.04
2019-01-26T11:06:46.701Z,100386.23
2019-01-26T11:09:17.023Z,100386.69
2019-01-26T11:11:47.547Z,100381.05
2019-01-26T11:14:17.957Z,100380.16
2019-01-26T11:16:51.257Z,100370.16
2019-01-26T11:19:21.628Z,100369.28
2019-01-26T11:21:52.115Z,100364.91
2019-01-26T11:24:22.461Z,100366.23
2019-01-26T11:26:55.350Z,100358.83
2019-01-26T11:29:25.659Z,100361.90
2019-01-26T11:31:57.144Z,100356.68
2019-01-26T11:34:27.482Z,100351.04
2019-01-26T11:36:58.135Z,100351.46
2019-01-26T11:39:28.565Z,100340.60
2019-01-26T11:41:58.937Z,100331.47
2019-01-26T11:44:29.440Z,100338.87
2019-01-26T11:47:04.764Z,100334.95
2019-01-26T11:49:35.196Z,100330.16
2019-01-26T11:52:14.790Z,100307.51
2019-01-26T12:20:06.902Z,100305.77
2019-01-26T12:23:12.744Z,100308.37
2019-01-26T12:25:47.389Z,100300.97
2019-01-26T12:32:16.418Z,100294.91
2019-01-26T12:34:52.072Z,100287.50
2019-01-26T12:37:24.217Z,100282.28
2019-01-26T12:41:31.247Z,100278.38
2019-01-26T12:47:50.483Z,100267.95
2019-01-26T12:50:47.498Z,100270.15
2019-01-26T13:02:06.086Z,100265.87
2019-01-26T13:09:31.679Z,100254.58
2019-01-26T13:12:15.797Z,100256.31
2019-01-26T13:14:47.192Z,100250.23
2019-01-26T13:17:17.925Z,100245.86
2019-01-26T13:19:53.532Z,100241.52
2019-01-26T13:22:27.225Z,100228.90
2019-01-26T13:24:58.145Z,100232.38
2019-01-26T13:27:28.894Z,100234.53
2019-01-26T13:29:59.580Z,100232.81
2019-01-26T13:32:30.179Z,100228.45
2019-01-26T13:35:00.920Z,100226.29
2019-01-26T13:37:31.469Z,100223.67
2019-01-26T13:40:01.933Z,100222.36
2019-01-26T13:42:33.626Z,100206.26
2019-01-26T13:45:04.698Z,100216.27
2019-01-26T13:47:38.032Z,100212.34
2019-01-26T13:50:09.441Z,100200.59
2019-01-26T13:52:39.932Z,100204.51
2019-01-26T13:55:16.740Z,100203.23
2019-01-26T13:57:47.280Z,100192.33
2019-01-26T14:00:24.771Z,100193.64
2019-01-26T14:02:56.402Z,100190.16
2019-01-26T14:05:28.983Z,100186.67
2019-01-26T14:07:59.495Z,100184.06
2019-01-26T14:10:29.961Z,100175.33
2019-01-26T14:13:00.472Z,100181.41
2019-01-26T14:15:30.950Z,100175.33
2019-01-26T14:18:05.182Z,100179.65
2019-01-26T14:20:35.764Z,100186.18
2019-01-26T14:23:07.084Z,100169.65
2019-01-26T14:25:37.425Z,100164.41
2019-01-26T14:28:10.621Z,100168.77
2019-01-26T14:30:51.526Z,100170.08
2019-01-26T14:33:21.943Z,100161.80
2019-01-26T14:35:54.006Z,100158.34
2019-01-26T14:38:24.708Z,100148.76
2019-01-26T14:41:01.087Z,100148.31
2019-01-26T14:43:31.763Z,100146.14
2019-01-26T14:46:05.568Z,100137.03
2019-01-26T14:48:36.191Z,100138.33
2019-01-26T14:51:07.767Z,100136.14
2019-01-26T14:53:39.839Z,100133.53
2019-01-26T14:56:19.194Z,100125.71
2019-01-26T14:58:56.698Z,100130.95
2019-01-26T15:01:39.010Z,100115.73
2019-01-26T15:04:20.957Z,100118.34
2019-01-26T15:07:35.139Z,100110.05
2019-01-26T15:10:19.192Z,100108.75
2019-01-26T15:13:49.387Z,100110.49
2019-01-26T15:16:41.772Z,100100.48
2019-01-26T15:24:17.452Z,100094.84
2019-01-26T15:27:01.995Z,100093.52
2019-01-26T15:29:35.787Z,100083.52
2019-01-26T15:32:19.145Z,100085.25
2019-01-26T15:48:45.531Z,100075.70
2019-01-26T15:55:14.089Z,100055.70
2019-01-26T17:11:07.334Z,99914.45
2019-01-26T17:17:37.488Z,99903.17
2019-01-26T17:20:17.921Z,99896.66
2019-01-26T17:22:48.963Z,99892.31
2019-01-26T17:25:20.108Z,99881.47
2019-01-26T17:28:24.211Z,99872.34
2019-01-26T17:31:08.711Z,99873.63
2019-01-26T17:34:16.606Z,99867.58
2019-01-26T17:36:31.869Z,99874.94
2019-01-26T17:39:25.154Z,99867.55
2019-01-26T17:42:32.504Z,99861.92
2019-01-26T17:45:22.519Z,99856.70
2019-01-26T17:48:06.175Z,99851.52
2019-01-26T17:50:42.088Z,99853.66
2019-01-26T17:53:14.084Z,99851.50
2019-01-26T17:55:45.008Z,99837.17
2019-01-26T17:58:16.030Z,99834.14
2019-01-26T18:00:59.290Z,99815.04
2019-01-26T18:03:30.254Z,99811.13
2019-01-26T18:06:02.686Z,99805.08
2019-01-26T18:08:34.103Z,99807.68
2019-01-26T18:11:04.905Z,99796.83
2019-01-26T18:13:37.823Z,99800.30
2019-01-26T18:16:09.674Z,99800.70
2019-01-26T18:18:40.275Z,99788.57
2019-01-26T18:21:12.066Z,99798.56
2019-01-26T18:23:44.364Z,99785.97
2019-01-26T18:26:15.724Z,99786.83
2019-01-26T18:28:46.606Z,99774.67
2019-01-26T18:31:17.170Z,99772.06
2019-01-26T18:33:47.581Z,99767.75
2019-01-26T18:36:18.662Z,99753.00
2019-01-26T18:38:52.849Z,99740.42
2019-01-26T18:41:23.425Z,99751.27
2019-01-26T18:43:54.129Z,99742.59
2019-01-26T18:46:28.426Z,99744.30
2019-01-26T18:48:59.137Z,99745.19
2019-01-26T18:51:29.659Z,99735.64
2019-01-26T18:54:00.292Z,99733.46
2019-01-26T18:56:32.167Z,99733.91
2019-01-26T18:59:02.533Z,99721.77
2019-01-26T19:01:33.299Z,99723.07
2019-01-26T19:04:48.713Z,99716.11
2019-01-26T19:07:19.261Z,99717.41
2019-01-26T19:09:49.977Z,99706.99
2019-01-26T19:12:20.429Z,99705.27
2019-01-26T19:14:52.844Z,99705.72
2019-01-26T19:17:29.486Z,99696.59
2019-01-26T19:20:02.110Z,99688.78
2019-01-26T19:22:32.980Z,99687.48
2019-01-26T19:25:05.830Z,99679.27
2019-01-26T19:27:36.425Z,99669.27
2019-01-26T19:30:10.314Z,99669.70
2019-01-26T19:32:40.868Z,99661.91
2019-01-26T19:35:12.289Z,99653.23
2019-01-26T19:37:42.846Z,99655.83
2019-01-26T19:40:19.721Z,99649.33
2019-01-26T19:42:53.333Z,99644.13
2019-01-26T19:45:23.784Z,99642.37
2019-01-26T19:47:54.391Z,99629.81
2019-01-26T19:50:25.012Z,99625.91
2019-01-26T19:52:57.760Z,99618.95
2019-01-26T19:55:28.214Z,99610.28
2019-01-26T19:57:58.695Z,99606.39
2019-01-26T20:00:31.835Z,99602.89
2019-01-26T20:03:03.435Z,99593.36
2019-01-26T20:05:34.006Z,99592.48
2019-01-26T20:08:04.482Z,99589.02
2019-01-26T20:10:34.809Z,99574.71
2019-01-26T20:13:05.511Z,99570.81
2019-01-26T20:15:35.976Z,99556.92
2019-01-26T20:18:07.271Z,99561.27
2019-01-26T20:20:39.307Z,99547.82
2019-01-26T20:23:10.875Z,99541.75
2019-01-26T20:25:41.361Z,99540.02
2019-01-26T20:28:11.959Z,99535.23
2019-01-26T20:30:42.482Z,99522.20
2019-01-26T20:33:12.911Z,99511.77
2019-01-26T20:35:44.674Z,99510.05
2019-01-26T20:38:15.104Z,99495.29
2019-01-26T20:40:45.602Z,99493.14
2019-01-26T20:43:15.976Z,99491.39
2019-01-26T20:45:46.411Z,99488.34
2019-01-26T20:48:20.026Z,99478.80
2019-01-26T20:50:50.464Z,99482.26
2019-01-26T20:53:20.866Z,99467.50
2019-01-26T20:55:52.786Z,99456.64
2019-01-26T20:58:23.234Z,99451.41
2019-01-26T21:00:53.692Z,99441.00
2019-01-26T21:03:24.085Z,99441.00
2019-01-26T21:05:57.492Z,99427.13
2019-01-26T21:08:28.016Z,99427.54
2019-01-26T21:10:58.449Z,99417.13
2019-01-26T21:13:28.826Z,99417.16
2019-01-26T21:15:59.229Z,99412.80
2019-01-26T21:18:29.668Z,99408.04
2019-01-26T21:21:03.328Z,99411.09
2019-01-26T21:23:35.561Z,99391.98
2019-01-26T21:26:07.265Z,99387.22
2019-01-26T21:28:37.624Z,99381.15
2019-01-26T21:31:12.398Z,99378.96
2019-01-26T21:33:44.093Z,99374.20
2019-01-26T21:36:25.601Z,99368.55
2019-01-26T21:38:57.807Z,99359.44
2019-01-26T21:41:38.052Z,99350.73
2019-01-26T21:44:23.150Z,99347.24
2019-01-26T21:46:55.755Z,99342.48
2019-01-26T21:49:29.005Z,99342.45
2019-01-26T21:52:04.859Z,99338.54
2019-01-26T21:54:35.803Z,99330.25
2019-01-26T21:57:07.950Z,99324.15
2019-01-26T21:59:39.204Z,99319.34
2019-01-26T22:02:10.243Z,99314.99
2019-01-26T22:04:41.187Z,99308.89
2019-01-26T22:07:14.999Z,99300.63
2019-01-26T22:09:46.945Z,99295.38
2019-01-26T22:12:19.380Z,99300.59
2019-01-26T22:14:55.556Z,99295.38
2019-01-26T22:18:16.956Z,99285.81
2019-01-26T22:22:00.419Z,99278.84
2019-01-26T22:24:26.659Z,99270.18
2019-01-26T22:26:57.262Z,99265.38
2019-01-26T22:29:50.781Z,99264.89
2019-01-26T22:38:16.446Z,99252.70
2019-01-26T22:45:53.433Z,99231.37
2019-01-26T22:50:14.950Z,99228.77
2019-01-26T23:29:02.042Z,99149.00
2019-01-26T23:32:10.829Z,99141.19
2019-01-26T23:47:21.462Z,99105.58
2019-01-26T23:50:51.755Z,99102.09
2019-01-26T23:52:58.264Z,99093.41
2019-01-26T23:55:29.004Z,99087.74
2019-01-26T23:58:09.420Z,99082.08
